Time;durP1;ratioP1;P1;durP2;ratioP2;P2;SDS_P1;SDS_P2;PMS_P1;PMS_P2;Temp;Humidity;BMP_temperature;BMP_pressure;BME280_temperature;BME280_humidity;BME280_pressure;Samples;Min_cycle;Max_cycle;Signal;HPM_P1;HPM_P2
2021/01/23 00:00:40;;;;;;;2.93;1.43;;;3.90;99.90;;;;;;5015883;28;20590;-60
2021/01/23 00:03:06;;;;;;;1.53;1.43;;;3.80;99.90;;;;;;5015258;28;20537;-58
2021/01/23 00:05:32;;;;;;;1.20;1.10;;;3.90;99.90;;;;;;5015321;28;20624;-59
2021/01/23 00:08:01;;;;;;;1.60;1.50;;;3.90;99.90;;;;;;5015614;28;20179;-59
2021/01/23 00:10:31;;;;;;;1.50;1.40;;;3.80;99.90;;;;;;5014196;28;20199;-58
2021/01/23 00:12:56;;;;;;;1.70;1.60;;;3.80;99.90;;;;;;5014383;28;20403;-60
2021/01/23 00:15:23;;;;;;;2.50;1.93;;;3.80;99.90;;;;;;5014959;28;20438;-58
2021/01/23 00:17:48;;;;;;;1.60;1.50;;;3.70;99.90;;;;;;5014795;28;20268;-59
2021/01/23 00:20:14;;;;;;;2.10;1.90;;;3.70;99.90;;;;;;5015143;28;20499;-59
2021/01/23 00:22:40;;;;;;;1.70;1.60;;;3.60;99.90;;;;;;5014700;28;20183;-59
2021/01/23 00:25:07;;;;;;;1.80;1.70;;;3.50;99.90;;;;;;5014494;28;20464;-58
2021/01/23 00:27:32;;;;;;;1.80;1.70;;;3.50;99.90;;;;;;5014777;28;20494;-60
2021/01/23 00:29:58;;;;;;;2.20;1.87;;;3.50;99.90;;;;;;5014293;28;20449;-59
2021/01/23 00:32:24;;;;;;;1.77;1.67;;;3.50;99.90;;;;;;5014461;28;20214;-58
2021/01/23 00:34:50;;;;;;;2.50;2.30;;;3.40;99.90;;;;;;5014640;28;20446;-59
2021/01/23 00:37:16;;;;;;;2.10;2.00;;;3.50;99.90;;;;;;5014437;28;20430;-58
2021/01/23 00:39:41;;;;;;;2.97;2.77;;;3.50;99.90;;;;;;5014191;28;20172;-59
2021/01/23 00:42:07;;;;;;;2.77;2.57;;;3.50;99.90;;;;;;5014592;28;20186;-59
2021/01/23 00:44:33;;;;;;;3.10;2.80;;;3.50;99.90;;;;;;5014098;28;20202;-60
2021/01/23 00:46:58;;;;;;;3.40;3.20;;;3.50;99.90;;;;;;5014588;28;20266;-59
2021/01/23 00:49:24;;;;;;;3.17;2.90;;;3.50;99.90;;;;;;5014556;28;20190;-58
2021/01/23 00:51:50;;;;;;;3.30;3.00;;;3.40;99.90;;;;;;5014245;28;20168;-59
2021/01/23 00:54:16;;;;;;;3.83;3.53;;;3.30;99.90;;;;;;5013935;28;20410;-59
2021/01/23 00:56:41;;;;;;;3.60;3.30;;;3.30;99.90;;;;;;5014030;28;20196;-58
2021/01/23 00:59:07;;;;;;;4.00;3.60;;;3.40;99.90;;;;;;5014018;28;20176;-58
2021/01/23 01:01:32;;;;;;;3.87;3.57;;;3.40;99.90;;;;;;5014125;28;20263;-59
2021/01/23 01:03:58;;;;;;;4.13;3.77;;;3.40;99.90;;;;;;5013196;28;20275;-59
2021/01/23 01:06:23;;;;;;;3.73;3.43;;;3.50;99.90;;;;;;5014170;28;20188;-59
2021/01/23 01:08:49;;;;;;;4.30;3.90;;;3.40;99.90;;;;;;5013929;28;20168;-59
2021/01/23 01:11:15;;;;;;;4.10;3.70;;;3.40;99.90;;;;;;5014270;28;20206;-59
2021/01/23 01:13:40;;;;;;;4.17;3.87;;;3.40;99.90;;;;;;5012732;28;20179;-60
2021/01/23 01:16:06;;;;;;;4.53;4.23;;;3.50;99.90;;;;;;5013818;28;20650;-59
2021/01/23 01:18:31;;;;;;;5.23;4.83;;;3.40;99.90;;;;;;5014744;28;20160;-57
2021/01/23 01:20:57;;;;;;;6.00;5.50;;;3.40;99.90;;;;;;5014084;28;20626;-59
2021/01/23 01:23:22;;;;;;;5.13;4.63;;;3.30;99.90;;;;;;5013079;28;20168;-59
2021/01/23 01:25:48;;;;;;;7.57;6.87;;;3.30;99.90;;;;;;5013668;28;20203;-59
2021/01/23 01:28:13;;;;;;;6.83;6.23;;;3.40;99.90;;;;;;5013353;28;20176;-59
2021/01/23 01:30:39;;;;;;;7.33;6.63;;;3.50;99.90;;;;;;5014194;28;20226;-57
2021/01/23 01:33:05;;;;;;;7.30;6.60;;;3.50;99.90;;;;;;5013949;28;20240;-59
2021/01/23 01:35:31;;;;;;;7.17;6.47;;;3.70;99.90;;;;;;5013996;28;20214;-55
2021/01/23 01:37:57;;;;;;;7.97;7.17;;;3.70;99.90;;;;;;5014309;28;20180;-59
2021/01/23 01:40:23;;;;;;;8.13;7.43;;;3.60;99.90;;;;;;5014206;28;20415;-56
2021/01/23 01:42:48;;;;;;;8.03;7.33;;;3.50;99.90;;;;;;5012329;28;20238;-58
2021/01/23 01:45:16;;;;;;;6.80;6.20;;;3.50;99.90;;;;;;5013042;28;20227;-54
2021/01/23 01:47:42;;;;;;;8.50;7.70;;;3.60;99.90;;;;;;5013153;28;20175;-59
2021/01/23 01:50:09;;;;;;;8.00;7.20;;;3.50;99.90;;;;;;5013766;28;20411;-58
2021/01/23 01:52:35;;;;;;;7.60;6.90;;;3.60;99.90;;;;;;5013515;28;20415;-57
2021/01/23 01:55:01;;;;;;;7.30;6.60;;;3.70;99.90;;;;;;5013636;28;20411;-59
2021/01/23 01:57:26;;;;;;;6.63;6.03;;;3.80;99.90;;;;;;5013167;28;20573;-59
2021/01/23 01:59:52;;;;;;;5.73;5.23;;;3.80;99.90;;;;;;5013363;28;20419;-58
2021/01/23 02:02:52;;;;;;;5.23;4.80;;;3.90;99.90;;;;;;5013318;28;20199;-60
2021/01/23 02:05:25;;;;;;;4.03;3.73;;;3.80;99.90;;;;;;5013247;28;20242;-58
2021/01/23 02:08:02;;;;;;;4.37;3.97;;;3.80;99.90;;;;;;5013145;28;20438;-59
2021/01/23 02:10:48;;;;;;;3.37;2.93;;;3.80;99.90;;;;;;5013294;28;20473;-58
2021/01/23 02:13:31;;;;;;;4.30;3.90;;;3.80;99.90;;;;;;5013155;28;20764;-60
2021/01/23 02:16:19;;;;;;;3.67;3.37;;;3.80;99.90;;;;;;5014303;28;20486;-60
2021/01/23 02:19:19;;;;;;;2.87;2.67;;;3.90;99.90;;;;;;5017670;28;20477;-58
2021/01/23 02:22:18;;;;;;;3.63;3.17;;;4.00;99.90;;;;;;4976708;28;20469;-58
2021/01/23 02:24:47;;;;;;;3.10;2.90;;;4.10;99.90;;;;;;5016944;28;20446;-58
2021/01/23 02:27:50;;;;;;;3.53;3.27;;;4.00;99.90;;;;;;5016959;28;20509;-59
2021/01/23 02:30:25;;;;;;;4.20;3.90;;;4.00;99.90;;;;;;5016531;28;20860;-56
2021/01/23 02:32:55;;;;;;;3.00;2.80;;;3.90;99.90;;;;;;5021412;28;20986;-59
2021/01/23 02:35:24;;;;;;;3.10;2.90;;;4.10;99.90;;;;;;5019182;28;20419;-58
2021/01/23 02:37:50;;;;;;;3.60;3.30;;;4.00;99.90;;;;;;5016615;28;20445;-59
2021/01/23 02:40:16;;;;;;;2.90;2.70;;;3.90;99.90;;;;;;5016398;28;20509;-55
2021/01/23 02:42:42;;;;;;;3.63;3.33;;;4.00;99.90;;;;;;5016542;28;20179;-57
2021/01/23 02:45:09;;;;;;;3.20;3.00;;;3.90;99.90;;;;;;5016229;28;20454;-59
2021/01/23 02:47:36;;;;;;;2.83;2.63;;;4.00;99.90;;;;;;5016732;28;20522;-60
2021/01/23 02:50:03;;;;;;;2.60;2.40;;;3.90;99.90;;;;;;5017117;28;20413;-60
2021/01/23 02:52:43;;;;;;;2.77;2.57;;;4.00;99.90;;;;;;5016954;28;20415;-58
2021/01/23 02:55:15;;;;;;;2.00;1.90;;;4.10;99.90;;;;;;5016425;28;20772;-59
2021/01/23 02:57:43;;;;;;;1.97;1.87;;;4.10;99.90;;;;;;5016897;28;20993;-59
2021/01/23 03:00:11;;;;;;;2.20;2.10;;;4.20;99.90;;;;;;5016285;28;20423;-58
2021/01/23 03:02:49;;;;;;;1.80;1.70;;;4.10;99.90;;;;;;5016598;28;20414;-59
2021/01/23 03:05:16;;;;;;;1.90;1.70;;;4.10;99.90;;;;;;5000482;28;20877;-59
2021/01/23 03:07:42;;;;;;;2.00;1.90;;;4.20;99.90;;;;;;5019871;28;20443;-57
2021/01/23 03:10:08;;;;;;;2.10;2.00;;;4.10;99.90;;;;;;5017040;28;20426;-56
2021/01/23 03:12:34;;;;;;;2.10;1.90;;;4.20;99.90;;;;;;5015741;28;20523;-55
2021/01/23 03:15:00;;;;;;;2.03;1.93;;;4.20;99.90;;;;;;5015858;28;20417;-57
2021/01/23 03:17:27;;;;;;;1.60;1.50;;;4.20;99.90;;;;;;5072307;23;20481;-61
2021/01/23 03:19:52;;;;;;;1.77;1.67;;;4.20;99.90;;;;;;5055817;28;20435;-61
2021/01/23 03:22:19;;;;;;;1.77;1.67;;;4.20;99.90;;;;;;5055107;28;20436;-61
2021/01/23 03:24:45;;;;;;;1.90;1.80;;;4.20;99.90;;;;;;5051250;28;20630;-63
2021/01/23 03:27:11;;;;;;;2.20;2.10;;;4.20;99.90;;;;;;5052060;28;20417;-64
2021/01/23 03:29:37;;;;;;;2.37;2.20;;;4.20;99.90;;;;;;5051999;28;20417;-64
2021/01/23 03:32:02;;;;;;;1.70;1.60;;;4.20;99.90;;;;;;5053320;28;20404;-63
2021/01/23 03:34:28;;;;;;;3.00;2.33;;;4.50;99.90;;;;;;5054794;28;20171;-62
2021/01/23 03:36:54;;;;;;;1.93;1.83;;;4.50;99.90;;;;;;5054912;28;20183;-62
2021/01/23 03:39:20;;;;;;;2.30;2.00;;;4.50;99.90;;;;;;5055129;28;20962;-62
2021/01/23 03:41:45;;;;;;;2.50;2.20;;;4.40;99.90;;;;;;5054869;28;20167;-62
2021/01/23 03:44:11;;;;;;;5.93;2.50;;;4.50;99.90;;;;;;5054897;28;20546;-61
2021/01/23 03:46:37;;;;;;;2.93;2.60;;;4.40;99.90;;;;;;5054963;28;20183;-62
2021/01/23 03:49:03;;;;;;;2.17;2.00;;;4.40;99.90;;;;;;5054936;28;21012;-62
2021/01/23 03:51:28;;;;;;;2.67;2.40;;;4.30;99.90;;;;;;5054457;28;20162;-63
2021/01/23 03:53:54;;;;;;;2.70;2.43;;;4.30;99.90;;;;;;5053787;28;20405;-62
2021/01/23 03:56:19;;;;;;;3.60;2.73;;;4.40;99.90;;;;;;5055457;28;20182;-61
2021/01/23 03:58:45;;;;;;;3.10;2.80;;;4.20;99.90;;;;;;5054600;28;20175;-62
2021/01/23 04:01:11;;;;;;;2.60;2.40;;;4.20;99.90;;;;;;5054395;28;20171;-62
2021/01/23 04:03:37;;;;;;;2.30;2.10;;;4.40;99.90;;;;;;5036476;28;20178;-62
2021/01/23 04:06:03;;;;;;;3.53;2.47;;;4.40;99.90;;;;;;5054273;28;20681;-62
2021/01/23 04:08:30;;;;;;;4.33;2.60;;;4.20;99.90;;;;;;5053161;28;20420;-63
2021/01/23 04:10:56;;;;;;;2.97;2.67;;;4.30;99.90;;;;;;5053578;28;20417;-62
2021/01/23 04:13:21;;;;;;;2.67;2.40;;;4.30;99.90;;;;;;5053998;28;20826;-63
2021/01/23 04:15:47;;;;;;;2.40;2.20;;;4.30;99.90;;;;;;5070520;28;20186;-62
2021/01/23 04:18:12;;;;;;;2.20;2.00;;;4.30;99.90;;;;;;5074389;28;20259;-61
2021/01/23 04:20:38;;;;;;;2.23;2.03;;;4.30;99.90;;;;;;5074359;28;20261;-62
2021/01/23 04:23:04;;;;;;;2.00;1.90;;;4.50;99.90;;;;;;5074266;28;20170;-61
2021/01/23 04:25:29;;;;;;;2.53;2.33;;;4.50;99.90;;;;;;5073804;28;20222;-64
2021/01/23 04:27:55;;;;;;;2.93;2.40;;;4.40;99.90;;;;;;5073977;28;20594;-61
2021/01/23 04:30:22;;;;;;;3.60;2.80;;;4.70;99.90;;;;;;5073837;28;20249;-61
2021/01/23 04:32:48;;;;;;;2.80;2.60;;;4.70;99.90;;;;;;5073844;28;20159;-62
2021/01/23 04:35:13;;;;;;;3.10;2.80;;;4.60;99.90;;;;;;5074272;28;20496;-62
2021/01/23 04:37:40;;;;;;;2.70;2.50;;;4.60;99.90;;;;;;5073681;28;20261;-61
2021/01/23 04:40:08;;;;;;;3.10;2.80;;;4.50;99.90;;;;;;5073794;28;20212;-61
2021/01/23 04:42:34;;;;;;;3.13;2.70;;;4.50;99.90;;;;;;5073630;28;20527;-61
2021/01/23 04:45:00;;;;;;;5.17;4.50;;;4.50;99.90;;;;;;5073675;28;20475;-61
2021/01/23 04:47:26;;;;;;;11.20;7.80;;;4.70;99.90;;;;;;5073563;28;20871;-61
2021/01/23 04:49:52;;;;;;;4.27;3.73;;;4.60;99.90;;;;;;5073564;28;20405;-61
2021/01/23 04:52:18;;;;;;;6.77;3.90;;;4.50;99.90;;;;;;5055599;28;20810;-61
2021/01/23 04:54:44;;;;;;;3.10;2.83;;;4.60;99.90;;;;;;5074053;28;20166;-61
2021/01/23 04:57:10;;;;;;;4.60;3.80;;;4.90;99.90;;;;;;5073348;28;20558;-61
2021/01/23 04:59:35;;;;;;;3.47;2.60;;;4.90;99.90;;;;;;5073378;28;20457;-61
2021/01/23 05:02:20;;;;;;;4.30;3.00;;;4.90;99.90;;;;;;5073622;28;20928;-61
2021/01/23 05:04:58;;;;;;;2.20;2.00;;;5.10;99.90;;;;;;5073246;28;20193;-59
2021/01/23 05:07:43;;;;;;;2.50;2.17;;;5.10;99.90;;;;;;5073295;28;20427;-61
2021/01/23 05:10:14;;;;;;;2.60;1.80;;;5.20;99.90;;;;;;5073162;28;20444;-62
2021/01/23 05:12:48;;;;;;;2.10;1.90;;;5.10;99.90;;;;;;5073762;28;20400;-61
2021/01/23 05:15:33;;;;;;;1.60;1.50;;;5.00;99.90;;;;;;5073219;28;20751;-61
2021/01/23 05:17:59;;;;;;;2.30;1.90;;;5.00;99.90;;;;;;5073498;28;20389;-61
2021/01/23 05:20:46;;;;;;;2.30;2.10;;;4.90;99.90;;;;;;5073324;28;20399;-60
2021/01/23 05:23:31;;;;;;;1.80;1.70;;;5.00;99.90;;;;;;5073419;28;20154;-61
2021/01/23 05:26:00;;;;;;;2.37;2.17;;;5.00;99.90;;;;;;5073234;28;20455;-61
2021/01/23 05:28:37;;;;;;;2.17;2.00;;;5.10;99.90;;;;;;5073058;28;20400;-61
2021/01/23 05:31:17;;;;;;;3.23;2.70;;;5.00;99.90;;;;;;5073315;28;20852;-61
2021/01/23 05:33:42;;;;;;;2.07;1.87;;;4.90;99.90;;;;;;5073526;28;20391;-62
2021/01/23 05:36:10;;;;;;;2.17;2.00;;;4.90;99.90;;;;;;5073136;28;20427;-61
2021/01/23 05:38:43;;;;;;;2.20;2.03;;;4.90;99.90;;;;;;5073225;28;20174;-61
2021/01/23 05:41:10;;;;;;;2.83;2.17;;;4.70;99.90;;;;;;5073116;28;20416;-61
2021/01/23 05:43:37;;;;;;;2.37;2.17;;;4.40;99.90;;;;;;5073192;28;20473;-61
2021/01/23 05:46:11;;;;;;;2.90;2.37;;;4.50;99.90;;;;;;5072811;28;20551;-61
2021/01/23 05:48:45;;;;;;;3.00;2.80;;;4.60;99.90;;;;;;5073212;28;20505;-61
2021/01/23 05:51:11;;;;;;;2.83;2.50;;;4.50;99.90;;;;;;5074500;28;20385;-61
2021/01/23 05:53:37;;;;;;;3.10;2.50;;;4.50;99.90;;;;;;5076889;28;20396;-61
2021/01/23 05:56:03;;;;;;;3.10;2.90;;;4.40;99.90;;;;;;5076871;28;20424;-61
2021/01/23 05:58:31;;;;;;;3.93;3.20;;;4.30;99.90;;;;;;5076845;28;20774;-61
2021/01/23 06:00:58;;;;;;;2.23;2.10;;;4.30;99.90;;;;;;5077049;28;20798;-62
2021/01/23 06:03:28;;;;;;;2.60;2.40;;;4.40;99.90;;;;;;5077287;28;20937;-61
2021/01/23 06:05:56;;;;;;;2.23;2.03;;;4.40;99.90;;;;;;5076794;28;20459;-61
2021/01/23 06:08:41;;;;;;;3.23;2.07;;;4.30;99.90;;;;;;5076858;28;20442;-61
2021/01/23 06:11:32;;;;;;;2.17;1.97;;;4.40;99.90;;;;;;5076545;28;20497;-61
2021/01/23 06:13:58;;;;;;;4.20;2.40;;;4.40;99.90;;;;;;5076676;28;20400;-62
2021/01/23 06:16:33;;;;;;;2.87;2.30;;;4.40;99.90;;;;;;5076368;28;20467;-62
2021/01/23 06:19:10;;;;;;;3.90;2.77;;;4.50;99.90;;;;;;5076358;28;20173;-62
2021/01/23 06:21:44;;;;;;;2.53;2.33;;;4.50;99.90;;;;;;5073379;28;20491;-62
2021/01/23 06:24:12;;;;;;;3.50;3.00;;;4.40;99.90;;;;;;5076451;28;20529;-60
2021/01/23 06:26:52;;;;;;;2.57;2.37;;;4.50;99.90;;;;;;5076454;28;20507;-61
2021/01/23 06:29:41;;;;;;;2.80;2.60;;;4.60;99.90;;;;;;5076395;28;20892;-60
2021/01/23 06:32:13;;;;;;;7.37;5.30;;;4.40;99.90;;;;;;5076723;28;20396;-62
2021/01/23 06:34:44;;;;;;;15.10;12.73;;;4.50;99.90;;;;;;5076080;28;20400;-61
2021/01/23 06:37:37;;;;;;;2.60;2.40;;;4.60;99.90;;;;;;5076001;28;20784;-62
2021/01/23 06:40:24;;;;;;;4.00;3.17;;;4.40;99.90;;;;;;5076558;28;20442;-62
2021/01/23 06:42:51;;;;;;;2.87;2.67;;;4.40;99.90;;;;;;5076008;28;20857;-61
2021/01/23 06:45:18;;;;;;;2.97;2.77;;;4.40;99.90;;;;;;5076003;28;20486;-62
2021/01/23 06:47:49;;;;;;;3.10;2.90;;;4.40;99.90;;;;;;5075692;28;21020;-61
2021/01/23 06:50:35;;;;;;;3.00;2.70;;;4.40;99.90;;;;;;5076071;28;20395;-62
2021/01/23 06:53:03;;;;;;;2.57;2.37;;;4.40;99.90;;;;;;5075114;28;20764;-62
2021/01/23 06:55:51;;;;;;;3.40;3.10;;;4.30;99.90;;;;;;5075888;28;20409;-63
2021/01/23 06:58:24;;;;;;;3.23;2.93;;;4.30;99.90;;;;;;5075949;28;20423;-61
2021/01/23 07:00:54;;;;;;;3.37;3.17;;;4.30;99.90;;;;;;5075856;28;20412;-62
2021/01/23 07:03:20;;;;;;;3.07;2.87;;;4.30;99.90;;;;;;5060466;28;20441;-62
2021/01/23 07:05:53;;;;;;;3.00;2.77;;;4.40;99.90;;;;;;5055454;28;20488;-63
2021/01/23 07:08:20;;;;;;;4.03;3.63;;;4.40;99.90;;;;;;5055347;28;20405;-62
2021/01/23 07:10:46;;;;;;;8.23;5.43;;;4.30;99.90;;;;;;5055258;28;20409;-61
2021/01/23 07:13:11;;;;;;;2.97;2.77;;;4.20;99.90;;;;;;5055543;28;20969;-62
2021/01/23 07:15:38;;;;;;;3.50;3.20;;;4.20;99.90;;;;;;5055142;28;20178;-61
2021/01/23 07:18:13;;;;;;;2.97;2.77;;;4.40;99.90;;;;;;5055290;28;20619;-62
2021/01/23 07:20:39;;;;;;;2.53;2.33;;;4.30;99.90;;;;;;5055310;28;20421;-62
2021/01/23 07:23:05;;;;;;;3.03;2.83;;;4.20;99.90;;;;;;5055460;28;20406;-60
2021/01/23 07:25:32;;;;;;;4.10;3.63;;;4.20;99.90;;;;;;5055070;28;20666;-63
2021/01/23 07:27:58;;;;;;;3.23;2.90;;;4.10;99.90;;;;;;5055381;28;20406;-62
2021/01/23 07:30:24;;;;;;;3.47;3.17;;;4.10;99.90;;;;;;5055274;28;20451;-62
2021/01/23 07:32:49;;;;;;;3.43;3.17;;;4.10;99.90;;;;;;5055036;28;20640;-62
2021/01/23 07:35:16;;;;;;;3.77;3.40;;;4.30;99.90;;;;;;5054990;28;20443;-62
2021/01/23 07:37:58;;;;;;;3.27;3.07;;;4.40;99.90;;;;;;5054978;28;20186;-62
2021/01/23 07:40:32;;;;;;;3.50;3.20;;;4.20;99.90;;;;;;5055269;28;20417;-62
2021/01/23 07:43:03;;;;;;;3.57;3.27;;;4.20;99.90;;;;;;5054855;28;20394;-62
2021/01/23 07:45:28;;;;;;;4.23;3.40;;;4.10;99.90;;;;;;5054656;28;20448;-63
2021/01/23 07:48:02;;;;;;;3.37;3.07;;;4.10;99.90;;;;;;5054763;28;20897;-62
2021/01/23 07:50:42;;;;;;;3.87;3.57;;;4.20;99.90;;;;;;5055238;28;20182;-61
2021/01/23 07:53:23;;;;;;;3.87;3.57;;;4.10;99.90;;;;;;5054470;28;20527;-61
2021/01/23 07:55:50;;;;;;;4.53;3.20;;;4.20;99.90;;;;;;5054518;28;20435;-61
2021/01/23 07:58:16;;;;;;;7.03;3.30;;;4.10;99.90;;;;;;5054070;28;20470;-64
2021/01/23 08:00:42;;;;;;;3.70;3.40;;;4.20;99.90;;;;;;5053832;28;20417;-62
2021/01/23 08:03:10;;;;;;;3.50;3.20;;;4.30;99.90;;;;;;5054387;28;20776;-62
2021/01/23 08:05:43;;;;;;;3.53;3.23;;;4.50;99.90;;;;;;5036380;28;20892;-62
2021/01/23 08:08:10;;;;;;;3.40;3.10;;;4.70;99.90;;;;;;5054411;28;20779;-62
2021/01/23 08:10:36;;;;;;;4.00;3.20;;;4.90;99.90;;;;;;5054503;28;20488;-62
2021/01/23 08:13:04;;;;;;;4.00;3.60;;;4.80;99.90;;;;;;5054253;28;20548;-62
2021/01/23 08:15:34;;;;;;;3.67;3.37;;;4.80;99.90;;;;;;5054042;28;20681;-62
2021/01/23 08:18:00;;;;;;;4.30;3.90;;;4.90;99.90;;;;;;5054388;28;20454;-61
2021/01/23 08:20:38;;;;;;;3.33;3.13;;;4.80;99.90;;;;;;5036695;28;20406;-61
2021/01/23 08:23:10;;;;;;;5.57;3.87;;;4.80;99.90;;;;;;5068898;28;20415;-61
2021/01/23 08:25:38;;;;;;;5.00;4.53;;;5.00;99.90;;;;;;5074078;28;20861;-61
2021/01/23 08:28:06;;;;;;;5.10;4.20;;;5.00;99.90;;;;;;5073856;28;20888;-62
2021/01/23 08:30:32;;;;;;;5.33;3.97;;;4.90;99.90;;;;;;5074141;28;20464;-61
2021/01/23 08:33:01;;;;;;;4.37;3.93;;;4.90;99.90;;;;;;5074075;28;20400;-62
2021/01/23 08:35:27;;;;;;;6.73;3.60;;;4.80;99.90;;;;;;5073987;28;20393;-64
2021/01/23 08:37:52;;;;;;;4.37;3.50;;;5.00;99.90;;;;;;5073714;28;20411;-62
2021/01/23 08:40:23;;;;;;;5.20;3.73;;;5.20;99.90;;;;;;5073631;28;20170;-62
2021/01/23 08:42:49;;;;;;;4.20;3.70;;;5.40;99.90;;;;;;5073433;28;20184;-62
2021/01/23 08:45:16;;;;;;;13.43;4.60;;;5.40;99.90;;;;;;5073443;28;20450;-61
2021/01/23 08:47:42;;;;;;;4.00;3.60;;;5.60;99.90;;;;;;5073837;28;20559;-65
2021/01/23 08:50:09;;;;;;;5.00;4.03;;;5.60;99.90;;;;;;5073777;28;20404;-64
2021/01/23 08:52:35;;;;;;;4.23;3.80;;;5.50;99.90;;;;;;5072412;28;20397;-65
2021/01/23 08:55:01;;;;;;;4.17;3.87;;;5.40;99.90;;;;;;5073288;28;20407;-63
2021/01/23 08:57:27;;;;;;;4.50;3.93;;;5.40;99.90;;;;;;5065307;28;20429;-63
2021/01/23 08:59:52;;;;;;;4.63;4.23;;;5.50;99.90;;;;;;5052559;28;20897;-64
2021/01/23 09:02:18;;;;;;;6.43;5.83;;;5.50;99.90;;;;;;5039857;28;20640;-65
2021/01/23 09:04:44;;;;;;;4.27;3.97;;;5.50;99.90;;;;;;5053085;28;20209;-64
2021/01/23 09:07:10;;;;;;;4.80;4.40;;;5.50;99.90;;;;;;5053682;28;20186;-64
2021/01/23 09:09:35;;;;;;;4.13;3.73;;;5.60;99.90;;;;;;5054008;28;20745;-64
2021/01/23 09:12:02;;;;;;;5.43;4.40;;;5.70;99.90;;;;;;5053023;28;20163;-64
2021/01/23 09:14:28;;;;;;;4.27;3.93;;;5.70;99.90;;;;;;5053115;28;20163;-64
2021/01/23 09:16:54;;;;;;;4.60;4.20;;;5.80;99.90;;;;;;5054282;28;20449;-64
2021/01/23 09:19:20;;;;;;;4.50;4.10;;;5.80;99.90;;;;;;5053068;28;20166;-64
2021/01/23 09:21:45;;;;;;;4.20;3.80;;;5.90;99.90;;;;;;5053311;28;20514;-64
2021/01/23 09:24:11;;;;;;;3.67;3.30;;;5.90;99.90;;;;;;5053063;28;20446;-64
2021/01/23 09:26:37;;;;;;;5.43;3.90;;;5.90;99.90;;;;;;5052358;28;20190;-64
2021/01/23 09:29:03;;;;;;;3.13;2.87;;;6.00;99.90;;;;;;5052891;28;20178;-64
2021/01/23 09:31:29;;;;;;;3.77;3.47;;;6.30;99.90;;;;;;5052825;28;20634;-64
2021/01/23 09:33:54;;;;;;;4.40;3.40;;;6.20;99.90;;;;;;5035217;28;20543;-64
2021/01/23 09:36:20;;;;;;;3.83;3.40;;;6.30;99.90;;;;;;5052833;28;20185;-64
2021/01/23 09:38:46;;;;;;;3.20;2.90;;;6.40;99.90;;;;;;5052913;28;20198;-65
2021/01/23 09:41:12;;;;;;;4.70;3.67;;;6.40;99.90;;;;;;5052962;28;20425;-65
2021/01/23 09:43:37;;;;;;;3.53;3.17;;;6.40;99.90;;;;;;5052879;28;20479;-66
2021/01/23 09:46:03;;;;;;;4.40;3.60;;;6.20;99.90;;;;;;5052692;28;20199;-65
2021/01/23 09:48:29;;;;;;;3.17;2.90;;;6.20;99.90;;;;;;5053117;28;20166;-65
2021/01/23 09:50:54;;;;;;;3.27;2.97;;;6.50;99.90;;;;;;5052789;28;20166;-64
2021/01/23 09:53:20;;;;;;;3.07;2.70;;;6.60;99.90;;;;;;5052878;28;20251;-64
2021/01/23 09:55:46;;;;;;;3.93;3.53;;;6.60;99.90;;;;;;5051272;28;20228;-65
2021/01/23 09:58:11;;;;;;;4.17;3.77;;;6.70;99.90;;;;;;5052374;28;20572;-65
2021/01/23 10:00:37;;;;;;;4.80;2.77;;;6.80;99.90;;;;;;5052289;28;20662;-65
2021/01/23 10:03:04;;;;;;;4.10;3.17;;;6.80;99.90;;;;;;5050648;28;20269;-65
2021/01/23 10:05:30;;;;;;;3.50;3.03;;;6.70;99.90;;;;;;5052229;28;20245;-65
2021/01/23 10:07:55;;;;;;;2.93;2.63;;;6.70;99.90;;;;;;5052488;28;20405;-64
2021/01/23 10:10:21;;;;;;;2.87;2.67;;;7.00;99.90;;;;;;5051745;28;20394;-64
2021/01/23 10:12:47;;;;;;;2.53;2.33;;;7.10;99.90;;;;;;5050867;28;20695;-65
2021/01/23 10:15:12;;;;;;;3.53;3.00;;;7.00;99.90;;;;;;5052401;28;20171;-64
2021/01/23 10:17:38;;;;;;;4.87;3.30;;;7.00;99.90;;;;;;5048618;28;20245;-64
2021/01/23 10:20:04;;;;;;;3.50;3.13;;;7.10;99.90;;;;;;5053050;28;20171;-64
2021/01/23 10:22:30;;;;;;;3.80;2.90;;;7.10;99.90;;;;;;5051128;28;20171;-64
2021/01/23 10:24:56;;;;;;;3.70;2.60;;;7.10;99.90;;;;;;5054845;28;20440;-64
2021/01/23 10:27:24;;;;;;;6.10;3.50;;;7.10;99.90;;;;;;5052196;28;20423;-64
2021/01/23 10:29:51;;;;;;;3.50;2.83;;;7.10;99.90;;;;;;5052309;28;20196;-64
2021/01/23 10:32:16;;;;;;;3.40;3.10;;;7.10;99.90;;;;;;5052625;28;20743;-64
2021/01/23 10:34:42;;;;;;;4.20;3.20;;;7.30;99.90;;;;;;5052600;28;20401;-64
2021/01/23 10:37:07;;;;;;;2.93;2.67;;;7.00;99.90;;;;;;5053560;28;20269;-64
2021/01/23 10:39:33;;;;;;;2.43;2.23;;;6.80;99.90;;;;;;5056128;28;20178;-64
2021/01/23 10:41:58;;;;;;;3.40;3.10;;;7.00;99.90;;;;;;5055775;28;20193;-64
2021/01/23 10:44:24;;;;;;;3.30;3.00;;;7.20;99.90;;;;;;5055884;28;20191;-64
2021/01/23 10:46:50;;;;;;;2.60;2.40;;;7.20;99.90;;;;;;5056147;28;20662;-64
2021/01/23 10:49:15;;;;;;;2.77;2.57;;;7.00;99.90;;;;;;5055813;28;20404;-64
2021/01/23 10:51:41;;;;;;;3.10;2.80;;;7.10;99.90;;;;;;5058420;28;20178;-64
2021/01/23 10:54:06;;;;;;;3.73;3.43;;;7.20;99.90;;;;;;5055861;28;20644;-64
2021/01/23 10:56:32;;;;;;;3.27;2.97;;;7.30;99.90;;;;;;5053344;28;20190;-64
2021/01/23 10:59:01;;;;;;;3.37;2.87;;;7.60;99.90;;;;;;5055519;28;20310;-64
2021/01/23 11:01:27;;;;;;;3.60;2.63;;;7.40;99.90;;;;;;5055433;28;20171;-64
2021/01/23 11:03:53;;;;;;;2.97;2.77;;;7.20;99.90;;;;;;5055760;28;20413;-64
2021/01/23 11:06:18;;;;;;;2.90;2.60;;;7.30;99.90;;;;;;5055250;28;20453;-64
2021/01/23 11:08:44;;;;;;;3.40;3.10;;;7.40;99.90;;;;;;5055674;28;20167;-65
2021/01/23 11:11:09;;;;;;;3.70;3.40;;;7.50;99.90;;;;;;5055284;28;20722;-64
2021/01/23 11:13:35;;;;;;;3.10;2.50;;;7.70;99.90;;;;;;5055327;28;20162;-63
2021/01/23 11:16:01;;;;;;;3.07;2.60;;;8.20;99.90;;;;;;5054956;28;20748;-65
2021/01/23 11:18:26;;;;;;;3.23;3.03;;;8.40;99.90;;;;;;5055220;28;20258;-64
2021/01/23 11:20:52;;;;;;;4.03;3.07;;;8.50;99.90;;;;;;5055447;28;20181;-64
2021/01/23 11:23:18;;;;;;;4.70;2.90;;;9.10;99.90;;;;;;5055291;28;20177;-64
2021/01/23 11:25:43;;;;;;;2.70;2.50;;;9.20;99.90;;;;;;5054991;28;20200;-64
2021/01/23 11:28:09;;;;;;;2.97;2.70;;;8.70;99.90;;;;;;5055339;28;20162;-64
2021/01/23 11:30:35;;;;;;;3.40;3.10;;;9.20;99.90;;;;;;5055098;28;20166;-64
2021/01/23 11:33:00;;;;;;;3.53;3.20;;;9.60;99.90;;;;;;5055167;28;20174;-64
2021/01/23 11:35:26;;;;;;;4.33;2.63;;;9.90;99.90;;;;;;5054854;28;20532;-64
2021/01/23 11:37:51;;;;;;;4.07;2.83;;;10.60;99.90;;;;;;5055492;28;20173;-64
2021/01/23 11:40:17;;;;;;;5.43;3.00;;;11.20;99.90;;;;;;5054879;28;20270;-64
2021/01/23 11:42:43;;;;;;;6.90;2.30;;;11.70;99.90;;;;;;5054812;28;20164;-64
2021/01/23 11:45:09;;;;;;;2.30;2.10;;;11.60;99.90;;;;;;5054664;28;20197;-64
2021/01/23 11:47:35;;;;;;;3.10;2.50;;;12.30;99.90;;;;;;5054474;28;20192;-64
2021/01/23 11:50:03;;;;;;;2.60;2.40;;;11.70;99.90;;;;;;5053930;28;20774;-64
2021/01/23 11:52:29;;;;;;;5.40;2.77;;;11.40;99.90;;;;;;5054136;28;20173;-64
2021/01/23 11:54:54;;;;;;;2.60;2.40;;;11.50;99.90;;;;;;5055074;28;20405;-64
2021/01/23 11:57:20;;;;;;;2.97;2.77;;;11.20;99.90;;;;;;5054404;28;20199;-64
2021/01/23 11:59:45;;;;;;;2.77;2.57;;;10.60;99.90;;;;;;5054343;28;20652;-64
2021/01/23 12:02:11;;;;;;;2.83;2.00;;;10.60;99.90;;;;;;5054896;28;20254;-64
2021/01/23 12:04:37;;;;;;;3.20;2.20;;;10.70;99.90;;;;;;5054317;28;20194;-64
2021/01/23 12:07:02;;;;;;;3.63;2.00;;;11.10;99.90;;;;;;5054151;28;20789;-64
2021/01/23 12:09:28;;;;;;;3.23;2.40;;;10.50;99.90;;;;;;5054049;28;20539;-64
2021/01/23 12:11:54;;;;;;;3.30;2.00;;;10.10;99.90;;;;;;5054325;28;20219;-64
2021/01/23 12:14:20;;;;;;;2.23;1.90;;;9.60;99.90;;;;;;5054129;28;20166;-66
2021/01/23 12:16:46;;;;;;;2.53;2.03;;;9.60;99.90;;;;;;5053939;28;20464;-64
2021/01/23 12:19:11;;;;;;;2.97;2.30;;;9.90;99.90;;;;;;5054016;28;20203;-64
2021/01/23 12:21:37;;;;;;;2.20;1.97;;;10.10;99.90;;;;;;5054373;28;20209;-64
2021/01/23 12:24:04;;;;;;;2.30;2.10;;;10.00;99.90;;;;;;5053795;28;20710;-65
2021/01/23 12:26:31;;;;;;;3.30;2.10;;;10.30;99.90;;;;;;5053762;28;20186;-65
2021/01/23 12:28:56;;;;;;;2.30;1.90;;;10.00;99.90;;;;;;5052009;28;20439;-65
2021/01/23 12:31:22;;;;;;;4.13;2.10;;;9.90;99.90;;;;;;5053538;28;20905;-65
2021/01/23 12:33:48;;;;;;;2.57;2.30;;;10.00;99.90;;;;;;5054908;28;20425;-65
2021/01/23 12:36:14;;;;;;;2.10;1.90;;;10.10;99.90;;;;;;5072698;28;20659;-65
2021/01/23 12:38:39;;;;;;;3.30;1.70;;;10.10;99.90;;;;;;5074194;28;20245;-66
2021/01/23 12:41:05;;;;;;;6.63;2.07;;;10.10;99.90;;;;;;5073419;28;20499;-63
2021/01/23 12:43:31;;;;;;;2.70;2.20;;;10.30;99.90;;;;;;5073408;28;20177;-64
2021/01/23 12:45:56;;;;;;;4.00;2.40;;;10.10;99.90;;;;;;5069739;28;20253;-64
2021/01/23 12:48:22;;;;;;;3.83;2.50;;;10.10;99.90;;;;;;5053714;28;20169;-64
2021/01/23 12:50:51;;;;;;;3.30;2.00;;;9.80;99.90;;;;;;5053254;28;20174;-64
2021/01/23 12:53:17;;;;;;;3.03;2.20;;;9.30;99.90;;;;;;5053034;28;20252;-65
2021/01/23 12:55:45;;;;;;;2.90;1.87;;;9.40;99.90;;;;;;5053755;28;20967;-65
2021/01/23 12:58:12;;;;;;;6.00;1.83;;;9.10;99.90;;;;;;5053186;28;20415;-64
2021/01/23 13:00:37;;;;;;;3.03;2.00;;;9.20;99.90;;;;;;5052912;28;20826;-64